Nearby METAR Reports

 

KBFI - Seattle/Boeing, Washington, USA
Distance from station: S 10mi, 16km
Updated: Wed, 13-Nov-2019 4:53pm PST
Partly cloudy
Partly cloudy
 Wind from calm
Wind: Calm
Temperature: 52°F , 11°C
Dew Point: 46°F , 8°C
Humidity: 82%
Barometer: 30.06 inHg , 1017.9 hPa
Clouds: Partly cloudy
Visibility: 10 miles , 16 km
Cloud details: Partly cloudy 25000 ft
2019/11/14 00:53 KBFI 140053Z 00000KT 10SM SCT250 11/08 A3006 RMK AO2 SLP180 T01110078
KRNT - Renton, Washington, USA
Distance from station: SSE 14mi, 23km
Updated: Wed, 13-Nov-2019 4:53pm PST
Clear
Clear
 Wind from N
Wind: N 10 mph , 17 km/h
Temperature: 52°F , 11°C
Dew Point: 46°F , 8°C
Humidity: 82%
Barometer: 30.05 inHg , 1017.6 hPa
Clouds: Clear
Visibility: 10 miles , 16 km
2019/11/14 00:53 KRNT 140053Z 35009KT 10SM CLR 11/08 A3005 RMK AO2 SLP181 T01110078
 
KPAE - Everett, Washington, USA
Distance from station: N 15mi, 25km
Updated: Wed, 13-Nov-2019 5:22pm PST
Mist, Overcast
Mist, Overcast
 Wind from N
Wind: N 6 mph , 9 km/h
Temperature: 48°F , 9°C
Wind Chill: 45°F , 7°C
Dew Point: 46°F , 8°C
Humidity: 94%
Barometer: 30.07 inHg , 1018.3 hPa
Summary: Mist
Clouds: Overcast
Visibility: 1 mile , 2 km
Cloud details: Overcast 200 ft
2019/11/14 01:22 KPAE 140122Z 35005KT 1SM R16R/P6000FT BR OVC002 09/08 A3007 RMK AO2 T00890083
KSEA - Seattle/Metro, Washington, USA
Distance from station: S 17mi, 27km
Updated: Wed, 13-Nov-2019 4:53pm PST
Partly cloudy
Partly cloudy
 Wind from N
Wind: N 13 mph , 20 km/h
Temperature: 52°F , 11°C
Dew Point: 45°F , 7°C
Humidity: 77%
Barometer: 30.05 inHg , 1017.6 hPa
Clouds: Partly cloudy
Visibility: 10 miles , 16 km
Cloud details: Few Clouds 1500 ft
Partly cloudy 25000 ft
2019/11/14 00:53 KSEA 140053Z 01011KT 10SM FEW015 SCT250 11/07 A3005 RMK AO2 SLP184 T01060072
 
KPWT - Bremerton Ntnl, Washington, USA
Distance from station: SW 24mi, 39km
Updated: Wed, 13-Nov-2019 4:56pm PST
Clear
Clear
 Wind from NE
Wind: NE 10 mph , 17 km/h
Temperature: 48°F , 9°C
Wind Chill: 44°F , 7°C
Dew Point: 46°F , 8°C
Humidity: 94%
Barometer: 30.05 inHg , 1017.6 hPa
Clouds: Clear
Visibility: 10 miles , 16 km
2019/11/14 00:56 KPWT 140056Z AUTO 04009KT 10SM CLR 09/08 A3005 RMK AO2 SLP195 T00940078 PNO $
KTIW - Tacoma, Washington, USA
Distance from station: SSW 32mi, 52km
Updated: Wed, 13-Nov-2019 5:12pm PST
Partly cloudy
Partly cloudy
 Wind from NNE
Wind: NNE 6 mph , 9 km/h
Temperature: 48°F , 9°C
Wind Chill: 45°F , 7°C
Dew Point: 46°F , 8°C
Humidity: 94%
Barometer: 30.05 inHg , 1017.6 hPa
Clouds: Partly cloudy
Visibility: 9 miles , 14 km
Cloud details: Partly cloudy 700 ft
2019/11/14 01:12 KTIW 140112Z 02005KT 9SM SCT007 09/08 A3005 RMK AO2 T00890078
 
KAWO - Arlington Muni, Washington, USA
Distance from station: N 33mi, 54km
Updated: Wed, 13-Nov-2019 4:56pm PST
Clear
Clear
 Wind from NNW
Wind: NNW 3 mph , 6 km/h
Temperature: 48°F , 9°C
Dew Point: 46°F , 8°C
Humidity: 94%
Barometer: 30.07 inHg , 1018.3 hPa
Clouds: Clear
Visibility: 10 miles , 16 km
2019/11/14 00:56 KAWO 140056Z AUTO 33003KT 10SM CLR 09/08 A3007 RMK AO2 SLP188 T00940083 PNO $
KTCM - Tacoma/Mc Chord, Washington, USA
Distance from station: S 41mi, 65km
Updated: Wed, 13-Nov-2019 5:28pm PST
Overcast
Overcast
 Wind from N
Wind: N 5 mph , 7 km/h
Temperature: 52°F , 11°C
Dew Point: 52°F , 11°C
Humidity: 100%
Barometer: 30.05 inHg , 1017.6 hPa
Clouds: Overcast
Visibility: 10 miles , 16 km
Cloud details: Overcast 1500 ft
2019/11/14 01:28 KTCM 140128Z AUTO 01004KT 10SM OVC015 11/11 A3005 RMK AO2 CIG 014 RWY34 SLP180 $
 
KPLU - Puyallup/Thun, Washington, USA
Distance from station: S 41mi, 66km
Updated: Wed, 13-Nov-2019 5:35pm PST
Overcast
Overcast
 Wind from calm
Wind: Calm
Temperature: 52°F , 11°C
Dew Point: 52°F , 11°C
Humidity: 100%
Barometer: 30.05 inHg , 1017.6 hPa
Clouds: Overcast
Visibility: 10 miles , 16 km
Cloud details: Overcast 1000 ft
2019/11/14 01:35 KPLU 140135Z AUTO 00000KT 10SM OVC010 11/11 A3005 RMK AO2
KGRF - Fort Lewis/Gray, Washington, USA
Distance from station: SSW 45mi, 72km
Updated: Wed, 13-Nov-2019 4:58pm PST
Overcast
Overcast
 Wind from N
Wind: N 6 mph , 9 km/h
Temperature: 52°F , 11°C
Dew Point: 52°F , 11°C
Humidity: 100%
Barometer: 30.05 inHg , 1017.6 hPa
Clouds: Overcast
Visibility: 10 miles , 16 km
Cloud details: Overcast 1300 ft
2019/11/14 00:58 KGRF 140058Z 35005KT 10SM OVC013 11/11 A3005 RMK AO2A SLP180 T01070107 $
 
KNUW - Whidbey Is. Nas, Washington, USA
Distance from station: NNW 48mi, 77km
Updated: Wed, 13-Nov-2019 4:56pm PST
Mostly cloudy
Mostly cloudy
 Wind from N
Wind: N 3 mph , 6 km/h
Temperature: 50°F , 10°C
Dew Point: 45°F , 7°C
Humidity: 82%
Barometer: 30.12 inHg , 1020 hPa
Clouds: Mostly cloudy
Visibility: 8 miles , 13 km
Cloud details: Few Clouds 1500 ft
Few Clouds 3500 ft
Partly cloudy 15000 ft
Mostly cloudy 25000 ft
2019/11/14 00:56 KNUW 140056Z 36003KT 8SM FEW015 FEW035 SCT150 BKN250 10/07 A3012 RMK AO2 SLP197 T01000072 $
KSHN - Shelton, Washington, USA
Distance from station: SW 50mi, 80km
Updated: Wed, 13-Nov-2019 4:53pm PST
Clear
Clear
 Wind from calm
Wind: Calm
Temperature: 48°F , 9°C
Dew Point: 46°F , 8°C
Humidity: 94%
Barometer: 30.04 inHg , 1017.3 hPa
Clouds: Clear
Visibility: 9 miles , 14 km
2019/11/14 00:53 KSHN 140053Z AUTO 00000KT 9SM CLR 09/08 A3004 RMK AO2 SLP174 T00940078